createdAt,value
2022-09-07T00:00:58.624Z,0.00
2022-09-07T00:01:58.642Z,0.00
2022-09-07T00:02:58.665Z,0.00
2022-09-07T00:03:58.643Z,0.00
2022-09-07T00:04:58.516Z,0.00
2022-09-07T00:05:58.482Z,0.00
2022-09-07T00:06:58.501Z,0.00
2022-09-07T00:07:58.459Z,0.00
2022-09-07T00:08:58.378Z,0.00
2022-09-07T00:09:58.360Z,0.00
2022-09-07T00:10:58.354Z,0.00
2022-09-07T00:11:58.291Z,0.00
2022-09-07T00:12:58.342Z,0.00
2022-09-07T00:13:58.231Z,0.00
2022-09-07T00:15:05.485Z,0.00
2022-09-07T00:15:58.251Z,0.00
2022-09-07T00:16:58.144Z,0.00
2022-09-07T00:17:58.141Z,0.00
2022-09-07T00:18:58.135Z,0.00
2022-09-07T00:19:58.051Z,0.00
2022-09-07T00:20:58.023Z,0.00
2022-09-07T00:21:57.991Z,0.00
2022-09-07T00:22:57.966Z,0.00
2022-09-07T00:23:57.992Z,0.00
2022-09-07T00:24:57.918Z,0.00
2022-09-07T00:25:57.878Z,0.00
2022-09-07T00:26:57.851Z,0.00
2022-09-07T00:27:57.816Z,0.00
2022-09-07T00:28:57.836Z,0.00
2022-09-07T00:29:57.754Z,0.00
2022-09-07T00:30:57.799Z,0.00
2022-09-07T00:31:57.705Z,0.00
2022-09-07T00:32:57.687Z,0.00
2022-09-07T00:33:57.683Z,0.00
2022-09-07T00:34:57.605Z,0.00
2022-09-07T00:35:57.572Z,0.00
2022-09-07T00:36:57.547Z,0.00
2022-09-07T00:37:57.518Z,0.00
2022-09-07T00:38:57.559Z,0.00
2022-09-07T00:39:57.539Z,0.00
2022-09-07T00:40:57.440Z,0.00
2022-09-07T00:41:57.398Z,0.00
2022-09-07T00:42:57.384Z,0.00
2022-09-07T00:43:57.347Z,0.00
2022-09-07T00:44:57.359Z,0.00
2022-09-07T00:45:57.317Z,0.00
2022-09-07T00:46:57.306Z,0.00
2022-09-07T00:47:57.243Z,0.00
2022-09-07T00:48:57.185Z,0.00
2022-09-07T00:49:57.210Z,0.00
2022-09-07T00:50:57.178Z,0.00
2022-09-07T00:51:58.013Z,0.00
2022-09-07T00:52:57.093Z,0.00
2022-09-07T00:53:57.038Z,0.00
2022-09-07T00:54:57.007Z,0.00
2022-09-07T00:55:57.098Z,0.00
2022-09-07T00:56:56.949Z,0.00
2022-09-07T00:57:56.931Z,0.00
2022-09-07T00:58:56.894Z,0.00
2022-09-07T00:59:56.869Z,0.00
2022-09-07T01:00:56.827Z,0.00
2022-09-07T01:01:57.619Z,0.00
2022-09-07T01:02:56.846Z,0.00
2022-09-07T01:03:56.733Z,0.00
2022-09-07T01:04:56.719Z,0.00
2022-09-07T01:05:56.684Z,0.00
2022-09-07T01:06:56.760Z,0.00
2022-09-07T01:07:56.620Z,0.00
2022-09-07T01:08:56.586Z,0.00
2022-09-07T01:09:56.556Z,0.00
2022-09-07T01:10:56.533Z,0.00
2022-09-07T01:11:56.496Z,0.00
2022-09-07T01:12:56.680Z,0.00
2022-09-07T01:13:56.447Z,0.00
2022-09-07T01:14:56.409Z,0.00
2022-09-07T01:15:56.392Z,0.00
2022-09-07T01:16:56.370Z,0.00
2022-09-07T01:17:56.341Z,0.00
2022-09-07T01:18:56.354Z,0.00
2022-09-07T01:19:56.298Z,0.00
2022-09-07T01:20:56.225Z,0.00
2022-09-07T01:21:56.201Z,0.00
2022-09-07T01:22:56.178Z,0.00
2022-09-07T01:23:56.136Z,0.00
2022-09-07T01:24:56.187Z,0.00
2022-09-07T01:25:56.071Z,0.00
2022-09-07T01:26:56.085Z,0.00
2022-09-07T01:27:56.007Z,0.00
2022-09-07T01:28:56.005Z,0.00
2022-09-07T01:29:56.040Z,0.00
2022-09-07T01:30:56.023Z,0.00
2022-09-07T01:31:55.886Z,0.00
2022-09-07T01:32:55.857Z,0.00
2022-09-07T01:33:55.827Z,0.00
2022-09-07T01:34:55.800Z,0.00
2022-09-07T01:35:55.820Z,0.00
2022-09-07T01:36:55.753Z,0.00
2022-09-07T01:37:57.196Z,0.00
2022-09-07T01:38:55.681Z,0.00
2022-09-07T01:39:55.706Z,0.00
2022-09-07T01:40:55.671Z,0.00
2022-09-07T01:41:55.620Z,0.00
2022-09-07T01:42:55.554Z,0.00
2022-09-07T01:43:55.589Z,0.00
2022-09-07T01:44:55.493Z,0.00
2022-09-07T01:45:55.628Z,0.00
2022-09-07T01:46:55.487Z,0.00
2022-09-07T01:47:55.415Z,0.00
2022-09-07T01:48:56.134Z,0.00
2022-09-07T01:49:55.344Z,0.00
2022-09-07T01:50:55.327Z,0.00
2022-09-07T01:51:55.341Z,0.00
2022-09-07T01:52:55.262Z,0.00
2022-09-07T01:53:55.220Z,0.00
2022-09-07T01:54:55.208Z,0.00
2022-09-07T01:55:55.154Z,0.00
2022-09-07T01:56:55.197Z,0.00
2022-09-07T01:57:55.111Z,0.00
2022-09-07T01:58:55.067Z,0.00
2022-09-07T01:59:55.037Z,0.00
2022-09-07T02:00:55.022Z,0.00
2022-09-07T02:01:55.121Z,0.00
2022-09-07T02:02:55.040Z,0.00
2022-09-07T02:03:54.917Z,0.00
2022-09-07T02:04:54.898Z,0.00
2022-09-07T02:05:54.860Z,0.00
2022-09-07T02:06:54.824Z,0.00
2022-09-07T02:07:54.860Z,0.00
2022-09-07T02:08:54.764Z,0.00
2022-09-07T02:09:54.749Z,0.00
2022-09-07T02:10:54.712Z,0.00
2022-09-07T02:11:55.638Z,0.00
2022-09-07T02:12:54.652Z,0.00
2022-09-07T02:13:54.682Z,0.00
2022-09-07T02:14:54.583Z,0.00
2022-09-07T02:15:54.596Z,0.00
2022-09-07T02:16:54.524Z,0.00
2022-09-07T02:17:54.490Z,0.00
2022-09-07T02:18:54.463Z,0.00
2022-09-07T02:19:54.482Z,0.00
2022-09-07T02:20:54.395Z,0.00
2022-09-07T02:21:54.367Z,0.00
2022-09-07T02:22:54.332Z,0.00
2022-09-07T02:23:54.302Z,0.00
2022-09-07T02:24:54.733Z,0.00
2022-09-07T02:25:54.260Z,0.00
2022-09-07T02:26:54.212Z,0.00
2022-09-07T02:27:54.184Z,0.00
2022-09-07T02:28:54.153Z,0.00
2022-09-07T02:29:54.139Z,0.00
2022-09-07T02:30:54.198Z,0.00
2022-09-07T02:31:54.056Z,0.00
2022-09-07T02:32:54.031Z,0.00
2022-09-07T02:33:54.008Z,0.00
2022-09-07T02:34:53.972Z,0.00
2022-09-07T02:35:53.998Z,0.00
2022-09-07T02:36:53.921Z,0.00
2022-09-07T02:37:54.646Z,0.00
2022-09-07T02:38:53.868Z,0.00
2022-09-07T02:39:53.909Z,0.00
2022-09-07T02:40:53.780Z,0.00
2022-09-07T02:41:53.801Z,0.00
2022-09-07T02:42:53.745Z,0.00
2022-09-07T02:43:53.764Z,0.00
2022-09-07T02:44:53.666Z,0.00
2022-09-07T02:45:53.796Z,0.00
2022-09-07T02:46:53.596Z,0.00
2022-09-07T02:47:53.564Z,0.00
2022-09-07T02:48:53.539Z,0.00
2022-09-07T02:49:53.523Z,0.00
2022-09-07T02:50:53.536Z,0.00
2022-09-07T02:51:53.448Z,0.00
2022-09-07T02:52:53.431Z,0.00
2022-09-07T02:53:53.453Z,0.00
2022-09-07T02:54:53.355Z,0.00
2022-09-07T02:55:53.375Z,0.00
2022-09-07T02:56:53.400Z,0.00
2022-09-07T02:57:53.258Z,0.00
2022-09-07T02:58:53.255Z,0.00
2022-09-07T02:59:53.198Z,0.00
2022-09-07T03:00:53.246Z,0.00
2022-09-07T03:01:53.203Z,0.00
2022-09-07T03:02:53.200Z,0.00
2022-09-07T03:03:53.087Z,0.00
2022-09-07T03:04:53.057Z,0.00
2022-09-07T03:05:53.070Z,0.00
2022-09-07T03:06:53.037Z,0.00
2022-09-07T03:07:52.983Z,0.00
2022-09-07T03:08:52.946Z,0.00
2022-09-07T03:09:52.893Z,0.00
2022-09-07T03:10:52.882Z,0.00
2022-09-07T03:11:52.890Z,0.00
2022-09-07T03:12:52.868Z,0.00
2022-09-07T03:13:52.764Z,0.00
2022-09-07T03:14:52.737Z,0.00
2022-09-07T03:15:56.015Z,0.00
2022-09-07T03:16:52.685Z,0.00
2022-09-07T03:17:52.702Z,0.00
2022-09-07T03:18:52.614Z,0.00
2022-09-07T03:19:52.588Z,0.00
2022-09-07T03:20:52.563Z,0.00
2022-09-07T03:21:52.542Z,0.00
2022-09-07T03:22:52.548Z,0.00
2022-09-07T03:23:52.565Z,0.00
2022-09-07T03:24:52.437Z,0.00
2022-09-07T03:25:52.399Z,0.00
2022-09-07T03:26:52.384Z,0.00
2022-09-07T03:27:52.336Z,0.00
2022-09-07T03:28:52.377Z,0.00
2022-09-07T03:29:52.273Z,0.00
2022-09-07T03:30:52.268Z,0.00
2022-09-07T03:31:52.218Z,0.00
2022-09-07T03:32:52.179Z,0.00
2022-09-07T03:33:52.155Z,0.00
2022-09-07T03:34:52.186Z,0.00
2022-09-07T03:35:52.087Z,0.00
2022-09-07T03:36:52.083Z,0.00
2022-09-07T03:37:52.025Z,0.00
2022-09-07T03:38:52.013Z,0.00
2022-09-07T03:39:52.014Z,0.00
2022-09-07T03:40:51.985Z,0.00
2022-09-07T03:41:51.902Z,0.00
2022-09-07T03:42:51.888Z,0.00
2022-09-07T03:43:59.682Z,0.00
2022-09-07T03:44:51.835Z,0.00
2022-09-07T03:45:51.928Z,0.00
2022-09-07T03:46:51.751Z,0.00
2022-09-07T03:47:51.720Z,0.00
2022-09-07T03:48:51.708Z,0.00
2022-09-07T03:49:54.580Z,0.00
2022-09-07T03:50:51.657Z,0.00
2022-09-07T03:51:51.770Z,4.00
2022-09-07T03:52:51.594Z,4.00
2022-09-07T03:53:51.541Z,0.00
2022-09-07T03:54:51.500Z,0.00
2022-09-07T03:55:51.499Z,4.00
2022-09-07T03:56:51.527Z,0.00
2022-09-07T03:57:51.478Z,4.00
2022-09-07T03:58:51.382Z,4.00
2022-09-07T03:59:51.347Z,8.00
2022-09-07T04:00:51.327Z,8.00
2022-09-07T04:01:51.337Z,8.00
2022-09-07T04:02:51.362Z,8.00
2022-09-07T04:03:51.255Z,8.00
2022-09-07T04:04:51.206Z,12.00
2022-09-07T04:05:51.178Z,12.00
2022-09-07T04:06:51.127Z,16.00
2022-09-07T04:07:51.162Z,20.00
2022-09-07T04:08:51.091Z,24.00
2022-09-07T04:09:51.134Z,24.00
2022-09-07T04:10:51.072Z,32.00
2022-09-07T04:11:50.981Z,36.00
2022-09-07T04:12:51.055Z,44.00
2022-09-07T04:13:50.937Z,48.00
2022-09-07T04:14:50.880Z,56.00
2022-09-07T04:15:53.766Z,64.00
2022-09-07T04:16:50.897Z,76.00
2022-09-07T04:17:50.883Z,88.00
2022-09-07T04:18:50.757Z,96.00
2022-09-07T04:19:50.745Z,108.00
2022-09-07T04:20:50.727Z,116.00
2022-09-07T04:21:50.667Z,128.00
2022-09-07T04:22:54.211Z,144.00
2022-09-07T04:23:50.687Z,164.00
2022-09-07T04:24:50.569Z,180.00
2022-09-07T04:25:50.548Z,200.00
2022-09-07T04:26:50.531Z,220.00
2022-09-07T04:27:50.475Z,244.00
2022-09-07T04:28:50.502Z,268.00
2022-09-07T04:29:50.456Z,288.00
2022-09-07T04:30:50.424Z,312.00
2022-09-07T04:31:50.376Z,328.00
2022-09-07T04:32:50.323Z,356.00
2022-09-07T04:33:50.355Z,380.00
2022-09-07T04:34:50.441Z,412.00
2022-09-07T04:35:50.228Z,448.00
2022-09-07T04:36:50.206Z,484.00
2022-09-07T04:37:50.171Z,528.00
2022-09-07T04:38:50.143Z,572.00
2022-09-07T04:39:50.226Z,624.00
2022-09-07T04:40:50.080Z,684.00
2022-09-07T04:41:50.047Z,744.00
2022-09-07T04:42:50.023Z,808.00
2022-09-07T04:43:49.985Z,872.00
2022-09-07T04:44:50.074Z,932.00
2022-09-07T04:45:49.972Z,1000.00
2022-09-07T04:46:49.899Z,1064.00
2022-09-07T04:47:49.887Z,1128.00
2022-09-07T04:48:49.847Z,1184.00
2022-09-07T04:49:49.792Z,1248.00
2022-09-07T04:50:49.818Z,1316.00
2022-09-07T04:51:49.746Z,1384.00
2022-09-07T04:52:49.734Z,1452.00
2022-09-07T04:53:49.739Z,1516.00
2022-09-07T04:54:49.817Z,1576.00
2022-09-07T04:55:49.769Z,1620.00
2022-09-07T04:56:49.583Z,1668.00
2022-09-07T04:57:49.560Z,1708.00
2022-09-07T04:58:49.539Z,1736.00
2022-09-07T04:59:49.482Z,1752.00
2022-09-07T05:00:49.506Z,1780.00
2022-09-07T05:01:49.477Z,1804.00
2022-09-07T05:02:49.460Z,1828.00
2022-09-07T05:03:49.421Z,1884.00
2022-09-07T05:04:49.352Z,1948.00
2022-09-07T05:05:49.339Z,2008.00
2022-09-07T05:06:49.302Z,2064.00
2022-09-07T05:07:49.590Z,2116.00
2022-09-07T05:08:49.235Z,2156.00
2022-09-07T05:09:49.168Z,2188.00
2022-09-07T05:10:49.170Z,2224.00
2022-09-07T05:11:49.130Z,2276.00
2022-09-07T05:12:49.225Z,2344.00
2022-09-07T05:13:49.055Z,2424.00
2022-09-07T05:14:49.040Z,2504.00
2022-09-07T05:15:49.015Z,2548.00
2022-09-07T05:16:49.036Z,2580.00
2022-09-07T05:17:48.928Z,2600.00
2022-09-07T05:18:49.003Z,2612.00
2022-09-07T05:19:49.738Z,2632.00
2022-09-07T05:20:48.831Z,2660.00
2022-09-07T05:21:48.807Z,2680.00
2022-09-07T05:22:48.818Z,2700.00
2022-09-07T05:23:48.738Z,2720.00
2022-09-07T05:24:48.762Z,2740.00
2022-09-07T05:25:48.683Z,2764.00
2022-09-07T05:26:48.658Z,2792.00
2022-09-07T05:27:48.642Z,2804.00
2022-09-07T05:28:48.732Z,2808.00
2022-09-07T05:30:05.039Z,2828.00
2022-09-07T05:31:48.511Z,2912.00
2022-09-07T05:32:48.496Z,2944.00
2022-09-07T05:34:52.298Z,3040.00
2022-09-07T05:35:48.379Z,3112.00
2022-09-07T05:36:48.402Z,3136.00
2022-09-07T05:37:48.321Z,3152.00
2022-09-07T05:38:48.297Z,3168.00
2022-09-07T05:39:48.292Z,3188.00
2022-09-07T05:40:48.349Z,3204.00
2022-09-07T05:41:48.192Z,3228.00
2022-09-07T05:42:48.163Z,3256.00
2022-09-07T05:44:48.131Z,3308.00
2022-09-07T05:45:48.126Z,3332.00
2022-09-07T05:46:48.153Z,3344.00
2022-09-07T05:47:48.029Z,3360.00
2022-09-07T05:48:47.997Z,3380.00
2022-09-07T05:49:47.960Z,3400.00
2022-09-07T05:50:47.919Z,3416.00
2022-09-07T05:51:48.016Z,3448.00
2022-09-07T05:52:47.853Z,3492.00
2022-09-07T05:53:47.827Z,3488.00
2022-09-07T05:54:47.796Z,3632.00
2022-09-07T05:55:47.785Z,3748.00
2022-09-07T05:56:47.752Z,3808.00
2022-09-07T05:57:47.861Z,3928.00
2022-09-07T05:58:47.676Z,4136.00
2022-09-07T05:59:47.640Z,4292.00
2022-09-07T06:00:47.612Z,4444.00
2022-09-07T06:01:47.634Z,4576.00
2022-09-07T06:02:47.606Z,4688.00
2022-09-07T06:03:47.651Z,4804.00
2022-09-07T06:04:47.487Z,4912.00
2022-09-07T06:05:47.508Z,4984.00
2022-09-07T06:07:04.600Z,5036.00
2022-09-07T06:07:47.394Z,5068.00
2022-09-07T06:08:47.375Z,5052.00
2022-09-07T06:10:47.316Z,4672.00
2022-09-07T06:11:47.325Z,4676.00
2022-09-07T06:12:49.174Z,4704.00
2022-09-07T06:13:47.213Z,4612.00
2022-09-07T06:14:47.416Z,4456.00
2022-09-07T06:15:47.154Z,4456.00
2022-09-07T06:16:47.167Z,4492.00
2022-09-07T06:17:47.099Z,4500.00
2022-09-07T06:18:47.067Z,4524.00
2022-09-07T06:19:47.034Z,4552.00
2022-09-07T06:20:47.400Z,4580.00
2022-09-07T06:21:47.173Z,4644.00
2022-09-07T06:22:46.989Z,4704.00
2022-09-07T06:23:46.925Z,4760.00
2022-09-07T06:24:46.892Z,4848.00
2022-09-07T06:25:46.891Z,4944.00
2022-09-07T06:26:48.799Z,5060.00
2022-09-07T06:27:46.800Z,5164.00
2022-09-07T06:28:49.704Z,5232.00
2022-09-07T06:29:46.760Z,5264.00
2022-09-07T06:30:46.708Z,5352.00
2022-09-07T06:32:47.063Z,5496.00
2022-09-07T06:33:46.628Z,5476.00
2022-09-07T06:34:46.592Z,5528.00
2022-09-07T06:35:46.558Z,5660.00
2022-09-07T06:36:46.533Z,5740.00
2022-09-07T06:37:46.504Z,5844.00
2022-09-07T06:38:46.812Z,6000.00
2022-09-07T06:39:46.481Z,6004.00
2022-09-07T06:40:46.411Z,6052.00
2022-09-07T06:42:01.823Z,6108.00
2022-09-07T06:42:46.356Z,6216.00
2022-09-07T06:43:46.325Z,6232.00
2022-09-07T06:44:48.318Z,6176.00
2022-09-07T06:45:46.346Z,6124.00
2022-09-07T06:47:46.214Z,5868.00
2022-09-07T06:48:46.188Z,5828.00
2022-09-07T06:49:46.166Z,5788.00
2022-09-07T06:50:46.187Z,5728.00
2022-09-07T06:51:46.090Z,5676.00
2022-09-07T06:53:46.149Z,5384.00
2022-09-07T06:55:01.642Z,5284.00
2022-09-07T06:55:45.968Z,5216.00
2022-09-07T06:56:47.120Z,5160.00
2022-09-07T06:57:45.917Z,5088.00
2022-09-07T06:58:45.888Z,5064.00
2022-09-07T06:59:45.949Z,5064.00
2022-09-07T07:00:45.900Z,5108.00
2022-09-07T07:01:45.801Z,5124.00
2022-09-07T07:02:45.779Z,5144.00
2022-09-07T07:03:45.822Z,5208.00
2022-09-07T07:04:51.633Z,5292.00
2022-09-07T07:05:45.751Z,5384.00
2022-09-07T07:06:45.662Z,5416.00
2022-09-07T07:07:45.631Z,5472.00
2022-09-07T07:08:45.606Z,5576.00
2022-09-07T07:09:45.575Z,5692.00
2022-09-07T07:10:45.535Z,5820.00
2022-09-07T07:11:45.569Z,5956.00
2022-09-07T07:12:45.494Z,6092.00
2022-09-07T07:13:45.455Z,6188.00
2022-09-07T07:14:45.467Z,6312.00
2022-09-07T07:15:45.393Z,6444.00
2022-09-07T07:16:45.429Z,6576.00
2022-09-07T07:17:48.034Z,6660.00
2022-09-07T07:18:45.397Z,6688.00
2022-09-07T07:19:45.278Z,6660.00
2022-09-07T07:20:45.253Z,6684.00
2022-09-07T07:22:07.835Z,6780.00
2022-09-07T07:22:46.875Z,6796.00
2022-09-07T07:23:45.166Z,6744.00
2022-09-07T07:24:45.205Z,6620.00
2022-09-07T07:25:45.118Z,6472.00
2022-09-07T07:26:45.750Z,6312.00
2022-09-07T07:27:45.051Z,6188.00
2022-09-07T07:29:00.762Z,6076.00
2022-09-07T07:29:45.051Z,5964.00
2022-09-07T07:30:44.968Z,5844.00
2022-09-07T07:31:44.940Z,5788.00
2022-09-07T07:32:44.931Z,5724.00
2022-09-07T07:33:44.920Z,5668.00
2022-09-07T07:34:44.932Z,5588.00
2022-09-07T07:35:44.824Z,5452.00
2022-09-07T07:36:44.797Z,5356.00
2022-09-07T07:37:44.774Z,5428.00
2022-09-07T07:39:00.888Z,5372.00
2022-09-07T07:40:44.875Z,5316.00
2022-09-07T07:42:03.209Z,5316.00
2022-09-07T07:42:44.625Z,5292.00
2022-09-07T07:43:44.662Z,5264.00
2022-09-07T07:44:44.581Z,5220.00
2022-09-07T07:46:02.516Z,5160.00
2022-09-07T07:46:44.553Z,5104.00
2022-09-07T07:47:44.529Z,5140.00
2022-09-07T07:48:44.456Z,5140.00
2022-09-07T07:49:44.481Z,5116.00
2022-09-07T07:50:44.406Z,5096.00
2022-09-07T07:53:41.281Z,5016.00
2022-09-07T07:53:44.320Z,5056.00
2022-09-07T07:54:44.293Z,5100.00
2022-09-07T07:55:44.667Z,5108.00
2022-09-07T07:56:44.233Z,5136.00
2022-09-07T07:57:44.313Z,5196.00
2022-09-07T07:58:44.180Z,5188.00
2022-09-07T07:59:44.151Z,5164.00
2022-09-07T08:00:54.243Z,5152.00
2022-09-07T08:01:44.202Z,5180.00
2022-09-07T08:02:44.140Z,5164.00
2022-09-07T08:03:44.086Z,5152.00
2022-09-07T08:04:44.016Z,5204.00
2022-09-07T08:05:43.989Z,5208.00
2022-09-07T08:06:43.958Z,5288.00
2022-09-07T08:07:43.946Z,5356.00
2022-09-07T08:08:43.952Z,5404.00
2022-09-07T08:09:43.876Z,5436.00
2022-09-07T08:10:43.843Z,5504.00
2022-09-07T08:11:43.813Z,5528.00
2022-09-07T08:12:43.793Z,5540.00
2022-09-07T08:13:43.864Z,5536.00
2022-09-07T08:14:43.734Z,5536.00
2022-09-07T08:15:43.703Z,5556.00
2022-09-07T08:16:43.747Z,5580.00
2022-09-07T08:17:43.647Z,5556.00
2022-09-07T08:18:46.971Z,5572.00
2022-09-07T08:19:43.655Z,5568.00
2022-09-07T08:20:43.568Z,5612.00
2022-09-07T08:21:43.788Z,5692.00
2022-09-07T08:22:43.517Z,5824.00
2022-09-07T08:23:43.481Z,5984.00
2022-09-07T08:24:43.523Z,6160.00
2022-09-07T08:25:43.434Z,6352.00
2022-09-07T08:26:43.452Z,6516.00
2022-09-07T08:27:43.378Z,6648.00
2022-09-07T08:28:43.345Z,6828.00
2022-09-07T08:29:43.460Z,7000.00
2022-09-07T08:30:43.292Z,7168.00
2022-09-07T08:31:43.289Z,7296.00
2022-09-07T08:32:43.238Z,7376.00
2022-09-07T08:33:43.209Z,7448.00
2022-09-07T08:34:43.188Z,7496.00
2022-09-07T08:35:43.329Z,7532.00
2022-09-07T08:36:43.136Z,7572.00
2022-09-07T08:37:44.068Z,7588.00
2022-09-07T08:38:43.083Z,7564.00
2022-09-07T08:39:43.122Z,7480.00
2022-09-07T08:40:43.659Z,7396.00
2022-09-07T08:41:42.994Z,7368.00
2022-09-07T08:42:43.025Z,7416.00
2022-09-07T08:43:45.895Z,7380.00
2022-09-07T08:44:42.916Z,7308.00
2022-09-07T08:45:42.890Z,7288.00
2022-09-07T08:46:42.974Z,7240.00
2022-09-07T08:47:42.837Z,7200.00
2022-09-07T08:48:42.811Z,7136.00
2022-09-07T08:49:42.783Z,7072.00
2022-09-07T08:50:42.801Z,6964.00
2022-09-07T08:51:43.773Z,6900.00
2022-09-07T08:52:42.704Z,6840.00
2022-09-07T08:53:42.680Z,6780.00
2022-09-07T08:54:42.657Z,6700.00
2022-09-07T08:55:42.624Z,6672.00
2022-09-07T08:57:20.598Z,6656.00
2022-09-07T08:57:42.568Z,6596.00
2022-09-07T08:58:49.057Z,6516.00
2022-09-07T08:59:42.525Z,6464.00
2022-09-07T09:00:42.498Z,6420.00
2022-09-07T09:01:42.832Z,6388.00
2022-09-07T09:02:44.626Z,6340.00
2022-09-07T09:05:42.459Z,6340.00
2022-09-07T09:06:42.433Z,6368.00
2022-09-07T09:07:42.406Z,6436.00
2022-09-07T09:08:42.310Z,6552.00
2022-09-07T09:09:42.261Z,6640.00
2022-09-07T09:10:42.241Z,6708.00
2022-09-07T09:11:42.237Z,6716.00
2022-09-07T09:12:42.182Z,6772.00
2022-09-07T09:13:42.213Z,6844.00
2022-09-07T09:14:42.143Z,6912.00
2022-09-07T09:15:42.148Z,6912.00
2022-09-07T09:16:42.976Z,6768.00
2022-09-07T09:17:42.075Z,6880.00
2022-09-07T09:18:42.269Z,7060.00
2022-09-07T09:19:42.014Z,7264.00
2022-09-07T09:20:41.981Z,7380.00
2022-09-07T09:21:41.956Z,7368.00
2022-09-07T09:22:41.929Z,7524.00
2022-09-07T09:23:41.904Z,7716.00
2022-09-07T09:24:41.926Z,8012.00
2022-09-07T09:25:41.853Z,8448.00
2022-09-07T09:26:41.877Z,8816.00
2022-09-07T09:27:41.813Z,8968.00
2022-09-07T09:28:41.775Z,8836.00
2022-09-07T09:29:42.113Z,8800.00
2022-09-07T09:30:41.779Z,8628.00
2022-09-07T09:31:41.738Z,8692.00
2022-09-07T09:32:41.717Z,8588.00
2022-09-07T09:33:41.660Z,8520.00
2022-09-07T09:34:41.629Z,8400.00
2022-09-07T09:35:41.672Z,8316.00
2022-09-07T09:36:41.586Z,8304.00
2022-09-07T09:37:41.562Z,8320.00
2022-09-07T09:38:41.529Z,8292.00
2022-09-07T09:39:41.554Z,8452.00
2022-09-07T09:40:41.537Z,8772.00
2022-09-07T09:41:41.455Z,9228.00
2022-09-07T09:42:41.425Z,9268.00
2022-09-07T09:43:41.405Z,9884.00
2022-09-07T09:44:41.380Z,10312.00
2022-09-07T09:46:41.361Z,11732.00
2022-09-07T09:47:41.358Z,12488.00
2022-09-07T09:48:41.290Z,13244.00
2022-09-07T09:49:41.264Z,13684.00
2022-09-07T09:52:49.299Z,14356.00
2022-09-07T09:53:41.161Z,14400.00
2022-09-07T09:54:41.144Z,14432.00
2022-09-07T09:55:41.125Z,14472.00
2022-09-07T09:56:41.139Z,14576.00
2022-09-07T09:57:41.241Z,14652.00
2022-09-07T09:59:58.202Z,14760.00
2022-09-07T10:01:21.291Z,14728.00
2022-09-07T10:03:57.666Z,14536.00
2022-09-07T10:04:40.909Z,14464.00
2022-09-07T10:05:40.892Z,14396.00
2022-09-07T10:06:40.931Z,14328.00
2022-09-07T10:07:40.836Z,14248.00
2022-09-07T10:08:40.815Z,14120.00
2022-09-07T10:09:40.833Z,13988.00
2022-09-07T10:10:40.771Z,13808.00
2022-09-07T10:12:09.172Z,13552.00
2022-09-07T10:12:40.751Z,13324.00
2022-09-07T10:13:40.717Z,13136.00
2022-09-07T10:14:43.715Z,12904.00
2022-09-07T10:15:41.604Z,12720.00
2022-09-07T10:16:41.310Z,12652.00
2022-09-07T10:17:40.723Z,12732.00
2022-09-07T10:18:40.590Z,12964.00
2022-09-07T10:19:40.584Z,13224.00
2022-09-07T10:20:40.572Z,13488.00
2022-09-07T10:21:40.550Z,13684.00
2022-09-07T10:22:40.505Z,13732.00
2022-09-07T10:23:40.606Z,13628.00
2022-09-07T10:24:40.475Z,13376.00
2022-09-07T10:25:40.435Z,13080.00
2022-09-07T10:26:40.442Z,12740.00
2022-09-07T10:27:40.400Z,12472.00
2022-09-07T10:29:40.351Z,12144.00
2022-09-07T10:30:40.365Z,12076.00
2022-09-07T10:31:40.382Z,12048.00
2022-09-07T10:32:40.289Z,12108.00
2022-09-07T10:33:40.441Z,12300.00
2022-09-07T10:34:40.364Z,12540.00
2022-09-07T10:35:40.219Z,12808.00
2022-09-07T10:36:40.197Z,13040.00
2022-09-07T10:37:40.184Z,13148.00
2022-09-07T10:38:40.171Z,13236.00
2022-09-07T10:39:40.420Z,13256.00
2022-09-07T10:40:40.115Z,13300.00
2022-09-07T10:41:40.095Z,13320.00
2022-09-07T10:42:40.245Z,13300.00
2022-09-07T10:43:40.053Z,13300.00
2022-09-07T10:44:40.246Z,13304.00
2022-09-07T10:45:40.001Z,13364.00
2022-09-07T10:47:40.045Z,13660.00
2022-09-07T10:48:39.952Z,13768.00
2022-09-07T10:49:40.029Z,13900.00
2022-09-07T10:50:39.964Z,14024.00
2022-09-07T10:51:39.890Z,14172.00
2022-09-07T10:52:39.849Z,14276.00
2022-09-07T10:53:41.675Z,14404.00
2022-09-07T10:54:40.724Z,14548.00
2022-09-07T10:55:40.361Z,14688.00
2022-09-07T10:56:40.735Z,14800.00
2022-09-07T10:57:39.763Z,14884.00
2022-09-07T10:59:08.991Z,15004.00
2022-09-07T11:00:08.798Z,15024.00
2022-09-07T11:00:39.767Z,14968.00
2022-09-07T11:01:39.778Z,14876.00
2022-09-07T11:02:39.961Z,14828.00
2022-09-07T11:03:40.035Z,14776.00
2022-09-07T11:04:39.605Z,14692.00
2022-09-07T11:05:39.572Z,14568.00
2022-09-07T11:06:39.600Z,14400.00
2022-09-07T11:07:39.530Z,14192.00
2022-09-07T11:09:39.488Z,13696.00
2022-09-07T11:10:39.465Z,13352.00
2022-09-07T11:12:39.424Z,12780.00
2022-09-07T11:13:55.694Z,12740.00
2022-09-07T11:14:39.389Z,12908.00
2022-09-07T11:15:39.368Z,13272.00
2022-09-07T11:16:54.705Z,13676.00
2022-09-07T11:17:39.717Z,14088.00
2022-09-07T11:18:39.332Z,14348.00
2022-09-07T11:19:39.291Z,14356.00
2022-09-07T11:20:39.256Z,14172.00
2022-09-07T11:22:39.275Z,13776.00
2022-09-07T11:23:41.013Z,13560.00
2022-09-07T11:24:39.846Z,13428.00
2022-09-07T11:25:39.165Z,13296.00
2022-09-07T11:26:39.128Z,13116.00
2022-09-07T11:27:39.119Z,12884.00
2022-09-07T11:28:39.158Z,12552.00
2022-09-07T11:29:39.055Z,12056.00
2022-09-07T11:30:39.937Z,11528.00
2022-09-07T11:31:39.069Z,11092.00
2022-09-07T11:32:39.010Z,10736.00
2022-09-07T11:33:39.309Z,10468.00
2022-09-07T11:34:39.002Z,10264.00
2022-09-07T11:35:38.937Z,10112.00
2022-09-07T11:36:38.913Z,10040.00
2022-09-07T11:37:38.903Z,10064.00
2022-09-07T11:38:39.860Z,10216.00
2022-09-07T11:39:38.980Z,10412.00
2022-09-07T11:40:38.827Z,10628.00
2022-09-07T11:41:38.812Z,11044.00
2022-09-07T11:42:45.995Z,11644.00
2022-09-07T11:43:38.782Z,12364.00
2022-09-07T11:44:38.745Z,13164.00
2022-09-07T11:45:38.947Z,13864.00
2022-09-07T11:46:38.734Z,14500.00
2022-09-07T11:47:38.681Z,14948.00
2022-09-07T11:48:38.779Z,15252.00
2022-09-07T11:49:38.633Z,15328.00
2022-09-07T11:50:38.626Z,15120.00
2022-09-07T11:51:38.660Z,14884.00
2022-09-07T11:52:38.571Z,14600.00
2022-09-07T11:53:38.557Z,14480.00
2022-09-07T11:54:38.542Z,14484.00
2022-09-07T11:55:38.505Z,14492.00
2022-09-07T11:56:38.554Z,14256.00
2022-09-07T11:57:38.526Z,14000.00
2022-09-07T11:58:38.552Z,13880.00
2022-09-07T11:59:38.438Z,13892.00
2022-09-07T12:00:39.383Z,14152.00
2022-09-07T12:01:38.491Z,14272.00
2022-09-07T12:02:58.187Z,14164.00
2022-09-07T12:03:39.391Z,13880.00
2022-09-07T12:04:38.407Z,13408.00
2022-09-07T12:05:38.296Z,12864.00
2022-09-07T12:06:38.302Z,12300.00
2022-09-07T12:07:38.348Z,11788.00
2022-09-07T12:08:38.242Z,11260.00
2022-09-07T12:09:38.240Z,10732.00
2022-09-07T12:10:38.191Z,10216.00
2022-09-07T12:11:38.191Z,9672.00
2022-09-07T12:12:38.152Z,9140.00
2022-09-07T12:13:38.206Z,8648.00
2022-09-07T12:14:38.103Z,8176.00
2022-09-07T12:15:38.126Z,7756.00
2022-09-07T12:16:38.062Z,7440.00
2022-09-07T12:17:38.557Z,7244.00
2022-09-07T12:18:38.030Z,7200.00
2022-09-07T12:19:37.999Z,7232.00
2022-09-07T12:20:38.005Z,7300.00
2022-09-07T12:21:37.961Z,7468.00
2022-09-07T12:22:37.943Z,7764.00
2022-09-07T12:23:37.997Z,8072.00
2022-09-07T12:24:37.902Z,8432.00
2022-09-07T12:25:37.875Z,8808.00
2022-09-07T12:26:37.850Z,9200.00
2022-09-07T12:27:37.839Z,9708.00
2022-09-07T12:28:37.808Z,10196.00
2022-09-07T12:29:37.877Z,10708.00
2022-09-07T12:30:37.793Z,11056.00
2022-09-07T12:31:39.739Z,11440.00
2022-09-07T12:32:54.343Z,11816.00
2022-09-07T12:33:37.703Z,12212.00
2022-09-07T12:34:37.675Z,12600.00
2022-09-07T12:35:37.731Z,12932.00
2022-09-07T12:36:37.679Z,13344.00
2022-09-07T12:37:37.634Z,13484.00
2022-09-07T12:38:37.590Z,13620.00
2022-09-07T12:39:37.633Z,13748.00
2022-09-07T12:40:37.548Z,13864.00
2022-09-07T12:41:37.581Z,13444.00
2022-09-07T12:42:37.848Z,12804.00
2022-09-07T12:43:37.486Z,12324.00
2022-09-07T12:44:37.460Z,12108.00
2022-09-07T12:45:37.443Z,11948.00
2022-09-07T12:46:37.488Z,11920.00